sensor_id;sensor_type;location;lat;lon;timestamp;temperature;humidity
12849;DHT22;6493;50.928;7.172;2024-01-10T00:00:17;-6.90;45.10
12849;DHT22;6493;50.928;7.172;2024-01-10T00:05:20;-6.90;45.10
12849;DHT22;6493;50.928;7.172;2024-01-10T00:10:25;-7.00;45.00
12849;DHT22;6493;50.928;7.172;2024-01-10T00:15:29;-7.00;45.10
12849;DHT22;6493;50.928;7.172;2024-01-10T00:20:33;-6.90;45.10
12849;DHT22;6493;50.928;7.172;2024-01-10T00:25:37;-6.90;45.10
12849;DHT22;6493;50.928;7.172;2024-01-10T00:30:41;-6.90;45.20
12849;DHT22;6493;50.928;7.172;2024-01-10T00:35:45;-6.90;45.00
12849;DHT22;6493;50.928;7.172;2024-01-10T00:40:50;-6.80;45.20
12849;DHT22;6493;50.928;7.172;2024-01-10T00:45:53;-6.80;45.20
12849;DHT22;6493;50.928;7.172;2024-01-10T00:50:57;-6.80;45.20
12849;DHT22;6493;50.928;7.172;2024-01-10T00:56:02;-6.80;45.20
12849;DHT22;6493;50.928;7.172;2024-01-10T01:01:06;-6.70;45.30
12849;DHT22;6493;50.928;7.172;2024-01-10T01:06:09;-6.70;45.20
12849;DHT22;6493;50.928;7.172;2024-01-10T01:11:16;-6.70;45.10
12849;DHT22;6493;50.928;7.172;2024-01-10T01:16:19;-6.70;45.10
12849;DHT22;6493;50.928;7.172;2024-01-10T01:21:23;-6.80;45.00
12849;DHT22;6493;50.928;7.172;2024-01-10T01:26:28;-6.80;45.10
12849;DHT22;6493;50.928;7.172;2024-01-10T01:31:31;-6.90;45.00
12849;DHT22;6493;50.928;7.172;2024-01-10T01:36:35;-7.00;45.00
12849;DHT22;6493;50.928;7.172;2024-01-10T01:41:40;-7.10;45.00
12849;DHT22;6493;50.928;7.172;2024-01-10T01:46:44;-7.20;45.00
12849;DHT22;6493;50.928;7.172;2024-01-10T01:51:49;-7.30;45.10
12849;DHT22;6493;50.928;7.172;2024-01-10T01:56:54;-7.40;45.10
12849;DHT22;6493;50.928;7.172;2024-01-10T02:02:01;-7.50;45.20
12849;DHT22;6493;50.928;7.172;2024-01-10T02:07:06;-7.60;45.10
12849;DHT22;6493;50.928;7.172;2024-01-10T02:12:11;-7.70;45.10
12849;DHT22;6493;50.928;7.172;2024-01-10T02:17:14;-7.70;45.30
12849;DHT22;6493;50.928;7.172;2024-01-10T02:22:18;-7.80;45.30
12849;DHT22;6493;50.928;7.172;2024-01-10T02:27:24;-7.80;45.40
12849;DHT22;6493;50.928;7.172;2024-01-10T02:32:28;-7.90;45.40
12849;DHT22;6493;50.928;7.172;2024-01-10T02:37:32;-8.00;45.30
12849;DHT22;6493;50.928;7.172;2024-01-10T02:42:37;-8.00;45.40
12849;DHT22;6493;50.928;7.172;2024-01-10T02:47:40;-8.00;45.40
12849;DHT22;6493;50.928;7.172;2024-01-10T02:52:44;-8.00;45.40
12849;DHT22;6493;50.928;7.172;2024-01-10T02:57:49;-8.10;45.30
12849;DHT22;6493;50.928;7.172;2024-01-10T03:02:53;-8.10;45.40
12849;DHT22;6493;50.928;7.172;2024-01-10T03:07:56;-8.20;45.50
12849;DHT22;6493;50.928;7.172;2024-01-10T03:13:01;-8.20;45.50
12849;DHT22;6493;50.928;7.172;2024-01-10T03:18:05;-8.20;45.50
12849;DHT22;6493;50.928;7.172;2024-01-10T03:23:09;-8.20;45.50
12849;DHT22;6493;50.928;7.172;2024-01-10T03:28:16;-8.30;45.50
12849;DHT22;6493;50.928;7.172;2024-01-10T03:33:20;-8.30;45.50
12849;DHT22;6493;50.928;7.172;2024-01-10T03:38:24;-8.30;45.60
12849;DHT22;6493;50.928;7.172;2024-01-10T03:43:29;-8.40;45.60
12849;DHT22;6493;50.928;7.172;2024-01-10T03:48:33;-8.40;45.70
12849;DHT22;6493;50.928;7.172;2024-01-10T03:53:36;-8.50;45.70
12849;DHT22;6493;50.928;7.172;2024-01-10T03:58:41;-8.50;45.70
12849;DHT22;6493;50.928;7.172;2024-01-10T04:03:45;-8.50;45.70
12849;DHT22;6493;50.928;7.172;2024-01-10T04:08:49;-8.50;45.80
12849;DHT22;6493;50.928;7.172;2024-01-10T04:13:53;-8.60;45.80
12849;DHT22;6493;50.928;7.172;2024-01-10T04:18:57;-8.60;45.90
12849;DHT22;6493;50.928;7.172;2024-01-10T04:24:01;-8.60;45.90
12849;DHT22;6493;50.928;7.172;2024-01-10T04:29:06;-8.60;45.90
12849;DHT22;6493;50.928;7.172;2024-01-10T04:34:10;-8.60;45.90
12849;DHT22;6493;50.928;7.172;2024-01-10T04:39:14;-8.60;46.00
12849;DHT22;6493;50.928;7.172;2024-01-10T04:44:22;-8.60;45.90
12849;DHT22;6493;50.928;7.172;2024-01-10T04:49:25;-8.70;45.90
12849;DHT22;6493;50.928;7.172;2024-01-10T04:54:29;-8.70;45.90
12849;DHT22;6493;50.928;7.172;2024-01-10T04:59:34;-8.70;46.00
12849;DHT22;6493;50.928;7.172;2024-01-10T05:04:38;-8.70;46.00
12849;DHT22;6493;50.928;7.172;2024-01-10T05:09:41;-8.80;46.00
12849;DHT22;6493;50.928;7.172;2024-01-10T05:14:46;-8.80;46.10
12849;DHT22;6493;50.928;7.172;2024-01-10T05:19:50;-8.80;46.10
12849;DHT22;6493;50.928;7.172;2024-01-10T05:24:55;-8.90;46.00
12849;DHT22;6493;50.928;7.172;2024-01-10T05:30:00;-8.90;46.00
12849;DHT22;6493;50.928;7.172;2024-01-10T05:35:04;-9.00;46.00
12849;DHT22;6493;50.928;7.172;2024-01-10T05:40:09;-9.10;46.00
12849;DHT22;6493;50.928;7.172;2024-01-10T05:45:15;-9.10;46.20
12849;DHT22;6493;50.928;7.172;2024-01-10T05:50:20;-9.10;46.20
12849;DHT22;6493;50.928;7.172;2024-01-10T05:55:24;-9.20;46.20
12849;DHT22;6493;50.928;7.172;2024-01-10T06:00:29;-9.10;46.50
12849;DHT22;6493;50.928;7.172;2024-01-10T06:05:33;-9.20;46.30
12849;DHT22;6493;50.928;7.172;2024-01-10T06:10:36;-9.10;46.90
12849;DHT22;6493;50.928;7.172;2024-01-10T06:15:41;-9.10;46.40
12849;DHT22;6493;50.928;7.172;2024-01-10T06:20:45;-9.10;46.40
12849;DHT22;6493;50.928;7.172;2024-01-10T06:25:48;-9.10;46.40
12849;DHT22;6493;50.928;7.172;2024-01-10T06:30:53;-9.10;46.40
12849;DHT22;6493;50.928;7.172;2024-01-10T06:35:57;-9.00;46.50
12849;DHT22;6493;50.928;7.172;2024-01-10T06:41:01;-9.00;46.40
12849;DHT22;6493;50.928;7.172;2024-01-10T06:46:11;-9.00;46.50
12849;DHT22;6493;50.928;7.172;2024-01-10T06:51:16;-8.90;46.40
12849;DHT22;6493;50.928;7.172;2024-01-10T06:56:19;-8.90;46.40
12849;DHT22;6493;50.928;7.172;2024-01-10T07:01:24;-8.90;46.40
12849;DHT22;6493;50.928;7.172;2024-01-10T07:06:28;-8.90;46.40
12849;DHT22;6493;50.928;7.172;2024-01-10T07:11:32;-8.80;46.30
12849;DHT22;6493;50.928;7.172;2024-01-10T07:16:37;-8.90;46.10
12849;DHT22;6493;50.928;7.172;2024-01-10T07:21:45;-8.90;46.00
12849;DHT22;6493;50.928;7.172;2024-01-10T07:26:49;-8.90;46.30
12849;DHT22;6493;50.928;7.172;2024-01-10T07:31:55;-9.00;46.30
12849;DHT22;6493;50.928;7.172;2024-01-10T07:36:59;-8.90;46.40
12849;DHT22;6493;50.928;7.172;2024-01-10T07:42:03;-8.90;46.40
12849;DHT22;6493;50.928;7.172;2024-01-10T07:47:08;-8.90;46.40
12849;DHT22;6493;50.928;7.172;2024-01-10T07:52:12;-8.90;46.40
12849;DHT22;6493;50.928;7.172;2024-01-10T07:57:18;-8.80;46.40
12849;DHT22;6493;50.928;7.172;2024-01-10T08:02:24;-8.80;46.40
12849;DHT22;6493;50.928;7.172;2024-01-10T08:07:28;-8.70;46.60
12849;DHT22;6493;50.928;7.172;2024-01-10T08:12:31;-8.70;46.60
12849;DHT22;6493;50.928;7.172;2024-01-10T08:17:36;-8.60;46.60
12849;DHT22;6493;50.928;7.172;2024-01-10T08:22:41;-8.50;46.70
12849;DHT22;6493;50.928;7.172;2024-01-10T08:27:46;-8.50;46.70
12849;DHT22;6493;50.928;7.172;2024-01-10T08:32:52;-8.40;46.80
12849;DHT22;6493;50.928;7.172;2024-01-10T08:37:56;-8.30;46.70
12849;DHT22;6493;50.928;7.172;2024-01-10T08:43:00;-8.20;46.80
12849;DHT22;6493;50.928;7.172;2024-01-10T08:48:06;-8.20;46.70
12849;DHT22;6493;50.928;7.172;2024-01-10T08:53:12;-8.10;46.70
12849;DHT22;6493;50.928;7.172;2024-01-10T08:58:16;-8.10;47.10
12849;DHT22;6493;50.928;7.172;2024-01-10T09:03:20;-8.00;46.70
12849;DHT22;6493;50.928;7.172;2024-01-10T09:08:24;-7.90;46.90
12849;DHT22;6493;50.928;7.172;2024-01-10T09:13:28;-7.70;47.10
12849;DHT22;6493;50.928;7.172;2024-01-10T09:18:33;-7.50;47.00
12849;DHT22;6493;50.928;7.172;2024-01-10T09:23:37;-7.40;47.70
12849;DHT22;6493;50.928;7.172;2024-01-10T09:28:40;-7.20;47.20
12849;DHT22;6493;50.928;7.172;2024-01-10T09:33:45;-7.00;47.40
12849;DHT22;6493;50.928;7.172;2024-01-10T09:38:49;-6.80;47.60
12849;DHT22;6493;50.928;7.172;2024-01-10T09:43:53;-6.50;47.80
12849;DHT22;6493;50.928;7.172;2024-01-10T09:48:58;-6.20;47.80
12849;DHT22;6493;50.928;7.172;2024-01-10T09:54:04;-6.00;47.90
12849;DHT22;6493;50.928;7.172;2024-01-10T09:59:08;-5.70;47.80
12849;DHT22;6493;50.928;7.172;2024-01-10T10:04:17;-5.50;47.60
12849;DHT22;6493;50.928;7.172;2024-01-10T10:09:21;-5.40;47.60
12849;DHT22;6493;50.928;7.172;2024-01-10T10:14:28;-5.30;47.30
12849;DHT22;6493;50.928;7.172;2024-01-10T10:19:33;-5.30;47.40
12849;DHT22;6493;50.928;7.172;2024-01-10T10:24:48;-5.30;46.90
12849;DHT22;6493;50.928;7.172;2024-01-10T10:29:52;-5.30;47.30
12849;DHT22;6493;50.928;7.172;2024-01-10T10:34:57;-5.20;47.20
12849;DHT22;6493;50.928;7.172;2024-01-10T10:40:01;-5.20;47.20
12849;DHT22;6493;50.928;7.172;2024-01-10T10:45:07;-5.20;47.20
12849;DHT22;6493;50.928;7.172;2024-01-10T10:50:19;-5.20;46.50
12849;DHT22;6493;50.928;7.172;2024-01-10T10:55:26;-5.20;46.70
12849;DHT22;6493;50.928;7.172;2024-01-10T11:00:31;-5.20;46.40
12849;DHT22;6493;50.928;7.172;2024-01-10T11:05:39;-5.10;46.80
12849;DHT22;6493;50.928;7.172;2024-01-10T11:10:45;-5.10;46.80
12849;DHT22;6493;50.928;7.172;2024-01-10T11:16:24;-4.90;47.10
12849;DHT22;6493;50.928;7.172;2024-01-10T11:21:40;-4.80;46.90
12849;DHT22;6493;50.928;7.172;2024-01-10T11:26:49;-4.60;46.60
12849;DHT22;6493;50.928;7.172;2024-01-10T11:31:53;-4.50;45.90
12849;DHT22;6493;50.928;7.172;2024-01-10T11:37:11;-4.40;46.10
12849;DHT22;6493;50.928;7.172;2024-01-10T11:42:22;-4.40;45.80
12849;DHT22;6493;50.928;7.172;2024-01-10T11:47:25;-4.40;44.80
12849;DHT22;6493;50.928;7.172;2024-01-10T11:52:36;-4.40;45.90
12849;DHT22;6493;50.928;7.172;2024-01-10T11:57:40;-4.30;45.20
12849;DHT22;6493;50.928;7.172;2024-01-10T12:02:46;-4.30;45.30
12849;DHT22;6493;50.928;7.172;2024-01-10T12:07:52;-4.30;45.30
12849;DHT22;6493;50.928;7.172;2024-01-10T12:12:55;-4.20;45.60
12849;DHT22;6493;50.928;7.172;2024-01-10T12:18:00;-4.10;44.70
12849;DHT22;6493;50.928;7.172;2024-01-10T12:23:05;-3.90;45.10
12849;DHT22;6493;50.928;7.172;2024-01-10T12:28:09;-3.80;45.50
12849;DHT22;6493;50.928;7.172;2024-01-10T12:33:12;-3.70;45.70
12849;DHT22;6493;50.928;7.172;2024-01-10T12:38:17;-3.60;44.00
12849;DHT22;6493;50.928;7.172;2024-01-10T12:43:21;-3.60;44.10
12849;DHT22;6493;50.928;7.172;2024-01-10T12:48:25;-3.60;44.40
12849;DHT22;6493;50.928;7.172;2024-01-10T12:53:30;-3.60;43.80
12849;DHT22;6493;50.928;7.172;2024-01-10T12:58:34;-3.60;44.00
12849;DHT22;6493;50.928;7.172;2024-01-10T13:03:39;-3.50;45.00
12849;DHT22;6493;50.928;7.172;2024-01-10T13:08:44;-3.50;44.90
12849;DHT22;6493;50.928;7.172;2024-01-10T13:13:48;-3.50;43.80
12849;DHT22;6493;50.928;7.172;2024-01-10T13:18:52;-3.50;45.20
12849;DHT22;6493;50.928;7.172;2024-01-10T13:23:58;-3.50;44.90
12849;DHT22;6493;50.928;7.172;2024-01-10T13:29:02;-3.50;45.10
12849;DHT22;6493;50.928;7.172;2024-01-10T13:34:06;-3.40;45.20
12849;DHT22;6493;50.928;7.172;2024-01-10T13:39:11;-3.40;45.00
12849;DHT22;6493;50.928;7.172;2024-01-10T13:44:17;-3.40;44.40
12849;DHT22;6493;50.928;7.172;2024-01-10T13:49:21;-3.40;43.90
12849;DHT22;6493;50.928;7.172;2024-01-10T13:54:26;-3.40;45.00
12849;DHT22;6493;50.928;7.172;2024-01-10T13:59:30;-3.40;45.60
12849;DHT22;6493;50.928;7.172;2024-01-10T14:04:34;-3.30;45.00
12849;DHT22;6493;50.928;7.172;2024-01-10T14:09:39;-3.30;45.70
12849;DHT22;6493;50.928;7.172;2024-01-10T14:14:43;-3.20;45.30
12849;DHT22;6493;50.928;7.172;2024-01-10T14:19:47;-3.20;45.80
12849;DHT22;6493;50.928;7.172;2024-01-10T14:24:53;-3.20;46.00
12849;DHT22;6493;50.928;7.172;2024-01-10T14:29:59;-3.10;45.80
12849;DHT22;6493;50.928;7.172;2024-01-10T14:35:07;-3.10;46.10
12849;DHT22;6493;50.928;7.172;2024-01-10T14:40:13;-3.10;45.90
12849;DHT22;6493;50.928;7.172;2024-01-10T14:45:17;-3.10;45.70
12849;DHT22;6493;50.928;7.172;2024-01-10T14:50:22;-3.10;45.20
12849;DHT22;6493;50.928;7.172;2024-01-10T14:55:28;-3.10;45.80
12849;DHT22;6493;50.928;7.172;2024-01-10T15:00:32;-3.20;46.00
12849;DHT22;6493;50.928;7.172;2024-01-10T15:05:36;-3.10;46.20
12849;DHT22;6493;50.928;7.172;2024-01-10T15:10:41;-3.10;46.00
12849;DHT22;6493;50.928;7.172;2024-01-10T15:15:45;-3.10;46.30
12849;DHT22;6493;50.928;7.172;2024-01-10T15:20:49;-3.10;46.50
12849;DHT22;6493;50.928;7.172;2024-01-10T15:25:54;-3.10;46.50
12849;DHT22;6493;50.928;7.172;2024-01-10T15:30:57;-3.10;47.00
12849;DHT22;6493;50.928;7.172;2024-01-10T15:36:01;-3.10;46.40
12849;DHT22;6493;50.928;7.172;2024-01-10T15:41:07;-3.10;46.50
12849;DHT22;6493;50.928;7.172;2024-01-10T15:46:17;-3.20;46.50
12849;DHT22;6493;50.928;7.172;2024-01-10T15:51:21;-3.20;46.50
12849;DHT22;6493;50.928;7.172;2024-01-10T15:56:26;-3.30;46.50
12849;DHT22;6493;50.928;7.172;2024-01-10T16:01:30;-3.40;46.50
12849;DHT22;6493;50.928;7.172;2024-01-10T16:06:34;-3.50;46.50
12849;DHT22;6493;50.928;7.172;2024-01-10T16:11:42;-3.60;46.50
12849;DHT22;6493;50.928;7.172;2024-01-10T16:16:47;-3.70;46.50
12849;DHT22;6493;50.928;7.172;2024-01-10T16:21:50;-3.80;46.50
12849;DHT22;6493;50.928;7.172;2024-01-10T16:26:55;-3.90;46.50
12849;DHT22;6493;50.928;7.172;2024-01-10T16:31:59;-3.90;46.60
12849;DHT22;6493;50.928;7.172;2024-01-10T16:37:03;-4.00;46.60
12849;DHT22;6493;50.928;7.172;2024-01-10T16:42:08;-4.00;46.70
12849;DHT22;6493;50.928;7.172;2024-01-10T16:47:13;-4.10;46.70
12849;DHT22;6493;50.928;7.172;2024-01-10T16:52:17;-4.10;46.80
12849;DHT22;6493;50.928;7.172;2024-01-10T16:57:24;-4.20;46.80
12849;DHT22;6493;50.928;7.172;2024-01-10T17:02:28;-4.20;47.30
12849;DHT22;6493;50.928;7.172;2024-01-10T17:07:31;-4.20;46.80
12849;DHT22;6493;50.928;7.172;2024-01-10T17:12:36;-4.30;46.80
12849;DHT22;6493;50.928;7.172;2024-01-10T17:17:40;-4.30;46.80
12849;DHT22;6493;50.928;7.172;2024-01-10T17:22:44;-4.30;46.80
12849;DHT22;6493;50.928;7.172;2024-01-10T17:27:49;-4.40;46.80
12849;DHT22;6493;50.928;7.172;2024-01-10T17:32:53;-4.40;46.80
12849;DHT22;6493;50.928;7.172;2024-01-10T17:37:57;-4.50;46.80
12849;DHT22;6493;50.928;7.172;2024-01-10T17:43:03;-4.50;46.90
12849;DHT22;6493;50.928;7.172;2024-01-10T17:48:06;-4.50;46.90
12849;DHT22;6493;50.928;7.172;2024-01-10T17:53:10;-4.60;46.80
12849;DHT22;6493;50.928;7.172;2024-01-10T17:58:15;-4.60;46.90
12849;DHT22;6493;50.928;7.172;2024-01-10T18:03:19;-4.70;46.90
12849;DHT22;6493;50.928;7.172;2024-01-10T18:08:22;-4.70;47.00
12849;DHT22;6493;50.928;7.172;2024-01-10T18:13:27;-4.70;47.00
12849;DHT22;6493;50.928;7.172;2024-01-10T18:18:31;-4.80;47.00
12849;DHT22;6493;50.928;7.172;2024-01-10T18:23:35;-4.80;47.10
12849;DHT22;6493;50.928;7.172;2024-01-10T18:28:40;-4.90;47.10
12849;DHT22;6493;50.928;7.172;2024-01-10T18:33:44;-5.00;47.10
12849;DHT22;6493;50.928;7.172;2024-01-10T18:38:49;-5.00;47.10
12849;DHT22;6493;50.928;7.172;2024-01-10T18:43:55;-5.10;47.10
12849;DHT22;6493;50.928;7.172;2024-01-10T18:48:59;-5.10;47.20
12849;DHT22;6493;50.928;7.172;2024-01-10T18:54:03;-5.10;47.20
12849;DHT22;6493;50.928;7.172;2024-01-10T18:59:07;-5.20;47.20
12849;DHT22;6493;50.928;7.172;2024-01-10T19:04:12;-5.30;47.20
12849;DHT22;6493;50.928;7.172;2024-01-10T19:09:16;-5.30;47.30
12849;DHT22;6493;50.928;7.172;2024-01-10T19:14:20;-5.40;47.30
12849;DHT22;6493;50.928;7.172;2024-01-10T19:19:27;-5.40;47.30
12849;DHT22;6493;50.928;7.172;2024-01-10T19:24:31;-5.40;47.40
12849;DHT22;6493;50.928;7.172;2024-01-10T19:29:35;-5.50;47.30
12849;DHT22;6493;50.928;7.172;2024-01-10T19:34:39;-5.50;47.40
12849;DHT22;6493;50.928;7.172;2024-01-10T19:39:43;-5.50;47.50
12849;DHT22;6493;50.928;7.172;2024-01-10T19:44:48;-5.60;47.50
12849;DHT22;6493;50.928;7.172;2024-01-10T19:49:53;-5.60;47.50
12849;DHT22;6493;50.928;7.172;2024-01-10T19:54:57;-5.60;47.50
12849;DHT22;6493;50.928;7.172;2024-01-10T20:00:02;-5.70;47.40
12849;DHT22;6493;50.928;7.172;2024-01-10T20:05:07;-5.80;47.40
12849;DHT22;6493;50.928;7.172;2024-01-10T20:10:11;-5.90;47.50
12849;DHT22;6493;50.928;7.172;2024-01-10T20:15:16;-5.90;47.50
12849;DHT22;6493;50.928;7.172;2024-01-10T20:20:20;-5.90;47.60
12849;DHT22;6493;50.928;7.172;2024-01-10T20:25:24;-5.90;47.60
12849;DHT22;6493;50.928;7.172;2024-01-10T20:30:29;-6.00;47.70
12849;DHT22;6493;50.928;7.172;2024-01-10T20:35:33;-6.00;47.70
12849;DHT22;6493;50.928;7.172;2024-01-10T20:40:38;-6.00;47.80
12849;DHT22;6493;50.928;7.172;2024-01-10T20:45:43;-6.10;47.70
12849;DHT22;6493;50.928;7.172;2024-01-10T20:50:47;-6.10;47.70
12849;DHT22;6493;50.928;7.172;2024-01-10T20:55:50;-6.10;47.80
12849;DHT22;6493;50.928;7.172;2024-01-10T21:00:55;-6.10;47.80
12849;DHT22;6493;50.928;7.172;2024-01-10T21:05:59;-6.20;47.70
12849;DHT22;6493;50.928;7.172;2024-01-10T21:11:03;-6.20;47.70
12849;DHT22;6493;50.928;7.172;2024-01-10T21:16:08;-6.10;47.90
12849;DHT22;6493;50.928;7.172;2024-01-10T21:21:12;-6.20;47.80
12849;DHT22;6493;50.928;7.172;2024-01-10T21:26:16;-6.20;47.80
12849;DHT22;6493;50.928;7.172;2024-01-10T21:31:22;-6.20;47.80
12849;DHT22;6493;50.928;7.172;2024-01-10T21:36:25;-6.30;47.80
12849;DHT22;6493;50.928;7.172;2024-01-10T21:41:29;-6.30;47.90
12849;DHT22;6493;50.928;7.172;2024-01-10T21:46:34;-6.40;47.90
12849;DHT22;6493;50.928;7.172;2024-01-10T21:51:38;-6.40;48.10
12849;DHT22;6493;50.928;7.172;2024-01-10T21:56:42;-6.50;48.20
12849;DHT22;6493;50.928;7.172;2024-01-10T22:01:47;-6.60;48.70
12849;DHT22;6493;50.928;7.172;2024-01-10T22:06:51;-6.70;48.40
12849;DHT22;6493;50.928;7.172;2024-01-10T22:11:54;-6.70;48.50
12849;DHT22;6493;50.928;7.172;2024-01-10T22:16:59;-6.70;48.40
12849;DHT22;6493;50.928;7.172;2024-01-10T22:22:03;-6.70;48.40
12849;DHT22;6493;50.928;7.172;2024-01-10T22:27:07;-6.70;48.30
12849;DHT22;6493;50.928;7.172;2024-01-10T22:32:13;-6.70;48.30
12849;DHT22;6493;50.928;7.172;2024-01-10T22:37:20;-6.70;48.30
12849;DHT22;6493;50.928;7.172;2024-01-10T22:42:23;-6.60;48.40
12849;DHT22;6493;50.928;7.172;2024-01-10T22:47:31;-6.60;48.40
12849;DHT22;6493;50.928;7.172;2024-01-10T22:52:34;-6.70;48.30
12849;DHT22;6493;50.928;7.172;2024-01-10T22:57:38;-6.70;48.60
12849;DHT22;6493;50.928;7.172;2024-01-10T23:02:43;-6.70;48.70
12849;DHT22;6493;50.928;7.172;2024-01-10T23:07:47;-6.80;48.60
12849;DHT22;6493;50.928;7.172;2024-01-10T23:12:50;-6.80;48.60
12849;DHT22;6493;50.928;7.172;2024-01-10T23:17:55;-6.80;48.60
12849;DHT22;6493;50.928;7.172;2024-01-10T23:22:59;-6.90;48.80
12849;DHT22;6493;50.928;7.172;2024-01-10T23:28:03;-6.80;48.70
12849;DHT22;6493;50.928;7.172;2024-01-10T23:33:08;-6.80;48.80
12849;DHT22;6493;50.928;7.172;2024-01-10T23:38:12;-6.90;49.00
12849;DHT22;6493;50.928;7.172;2024-01-10T23:43:16;-6.90;48.90
12849;DHT22;6493;50.928;7.172;2024-01-10T23:48:30;-6.90;49.00
12849;DHT22;6493;50.928;7.172;2024-01-10T23:53:34;-7.00;49.20
12849;DHT22;6493;50.928;7.172;2024-01-10T23:58:37;-7.10;48.90
